Latest Weather Observations for Sydney Harbour

IDN60901

Issued at 9:01 pm EST Wednesday 5 August 2020 (issued every 10 minutes, with the page automatically refreshed every 10 minutes)

About weather observations | Map of Sydney area stations | Latest observations for Sydney area | Other Formats
Station Details ID: 066196 Name: WEDDING CAKE WEST Lat: -33.84 Lon: 151.26 Height: 6.0 m
Data from the previous 72 hours. | See also: Recent months at Sydney Harbour
Date/Time
EST
Temp
°C
App
Temp
°C
Dew
Point
°C
Rel
Hum
%
Delta-T
°C
Wind Press
QNH
hPa
Press
MSL
hPa
Rain since
9am
mm
Dir  Spd
km/h
Gust
km/h
Spd
kts
Gust
kts
05/08:30pm 12.8 - - - - WNW 20 30 11 16 - - -
05/08:00pm 13.5 - - - - W 20 28 11 15 - - -
05/07:30pm 13.6 - - - - WNW 13 20 7 11 - - -
05/07:00pm 14.0 - - - - W 9 15 5 8 - - -
05/06:30pm 14.1 - - - - NW 15 17 8 9 - - -
05/06:00pm 15.3 - - - - SW 24 30 13 16 - - -
05/05:30pm 15.5 - - - - W 17 24 9 13 - - -
05/05:00pm 16.1 - - - - WSW 20 28 11 15 - - -
05/04:30pm 16.7 - - - - WSW 28 39 15 21 - - -
05/04:00pm 17.2 - - - - W 26 37 14 20 - - -
05/03:30pm 17.0 - - - - W 32 44 17 24 - - -
05/03:00pm 16.6 - - - - W 24 35 13 19 - - -
05/02:30pm 16.4 - - - - W 30 41 16 22 - - -
05/02:00pm 16.0 - - - - W 30 43 16 23 - - -
05/01:30pm 15.3 - - - - W 24 35 13 19 - - -
05/01:00pm 14.3 - - - - W 20 30 11 16 - - -
05/12:30pm 13.8 - - - - W 30 37 16 20 - - -
05/12:00pm 13.5 - - - - WSW 32 39 17 21 - - -
05/11:30am 12.7 - - - - WNW 35 48 19 26 - - -
05/11:00am 12.1 - - - - W 32 39 17 21 - - -
05/10:30am 11.6 - - - - W 26 37 14 20 - - -
05/10:00am 11.1 - - - - WNW 30 41 16 22 - - -
05/09:30am 10.7 - - - - WNW 26 41 14 22 - - -
05/09:00am 10.3 - - - - NW 20 33 11 18 - - -
05/08:30am 9.6 - - - - NNW 19 28 10 15 - - -
05/08:00am 9.0 - - - - NW 17 28 9 15 - - -
05/07:30am 8.1 - - - - NNW 19 30 10 16 - - -
05/07:00am 7.9 - - - - NW 20 30 11 16 - - -
05/06:30am 8.0 - - - - WNW 15 20 8 11 - - -
05/06:00am 8.8 - - - - WNW 20 28 11 15 - - -
05/05:30am 8.7 - - - - WNW 20 26 11 14 - - -
05/05:00am 8.8 - - - - W 30 41 16 22 - - -
05/04:30am 9.0 - - - - W 30 39 16 21 - - -
05/04:00am 9.2 - - - - W 32 39 17 21 - - -
05/03:30am 9.4 - - - - W 37 48 20 26 - - -
05/03:07am 9.6 - - - - W 35 54 19 29 - - -
05/03:00am 9.6 - - - - W 35 50 19 27 - - -
05/02:30am 9.9 - - - - W 39 59 21 32 - - -
05/02:21am 9.9 - - - - WSW 39 59 21 32 - - -
05/02:00am 10.1 - - - - WSW 41 54 22 29 - - -
05/01:46am 10.2 - - - - WSW 37 56 20 30 - - -
05/01:30am 10.3 - - - - WSW 37 50 20 27 - - -
05/01:00am 10.6 - - - - WSW 33 46 18 25 - - -
05/12:30am 10.9 - - - - WSW 33 43 18 23 - - -
05/12:10am 11.4 - - - - WSW 35 57 19 31 - - -
05/12:00am 11.5 - - - - WSW 37 50 20 27 - - -
 
Date/Time
EST
Temp
°C
App
Temp
°C
Dew
Point
°C
Rel
Hum
%
Delta-T
°C
Wind Press
QNH
hPa
Press
MSL
hPa
Rain since
9am
mm
Dir  Spd
km/h
Gust
km/h
Spd
kts
Gust
kts
04/11:31pm 11.9 - - - - WSW 32 50 17 27 - - -
04/11:30pm 11.9 - - - - WSW 33 50 18 27 - - -
04/11:00pm 12.1 - - - - WSW 26 41 14 22 - - -
04/10:30pm 12.6 - - - - WSW 32 43 17 23 - - -
04/10:00pm 13.2 - - - - SW 30 39 16 21 - - -
04/09:30pm 14.0 - - - - SW 32 43 17 23 - - -
04/09:00pm 14.6 - - - - SW 26 35 14 19 - - -
04/08:30pm 15.2 - - - - WSW 33 43 18 23 - - -
04/08:00pm 16.5 - - - - WSW 28 37 15 20 - - -
04/07:30pm 17.0 - - - - W 28 35 15 19 - - -
04/07:00pm 17.6 - - - - W 20 28 11 15 - - -
04/06:30pm 18.1 - - - - W 17 24 9 13 - - -
04/06:00pm 18.7 - - - - W 26 37 14 20 - - -
04/05:30pm 19.3 - - - - WNW 28 39 15 21 - - -
04/05:00pm 20.1 - - - - W 32 44 17 24 - - -
04/04:30pm 20.8 - - - - W 28 48 15 26 - - -
04/04:04pm 21.1 - - - - W 32 54 17 29 - - -
04/04:00pm 21.2 - - - - W 30 41 16 22 - - -
04/03:45pm 21.3 - - - - W 33 46 18 25 - - -
04/03:30pm 21.0 - - - - WNW 15 28 8 15 - - -
04/03:00pm 20.5 - - - - WNW 20 32 11 17 - - -
04/02:30pm 20.5 - - - - WNW 24 32 13 17 - - -
04/02:00pm 20.3 - - - - WNW 28 37 15 20 - - -
04/01:30pm 20.1 - - - - NW 19 28 10 15 - - -
04/01:00pm 19.7 - - - - NW 19 28 10 15 - - -
04/12:30pm 19.4 - - - - W 20 28 11 15 - - -
04/12:00pm 19.1 - - - - NNW 17 24 9 13 - - -
04/11:30am 18.0 - - - - N 17 20 9 11 - - -
04/11:00am 17.6 - - - - N 19 24 10 13 - - -
04/10:30am 17.2 - - - - N 17 20 9 11 - - -
04/10:00am 16.2 - - - - N 17 22 9 12 - - -
04/09:30am 15.5 - - - - NNW 24 28 13 15 - - -
04/09:00am 14.4 - - - - NNW 11 17 6 9 - - -
04/08:30am 12.4 - - - - SSW 4 7 2 4 - - -
04/08:00am 12.0 - - - - SW 6 6 3 3 - - -
04/07:30am 11.4 - - - - WSW 4 6 2 3 - - -
04/07:00am 11.4 - - - - WSW 7 7 4 4 - - -
04/06:30am 11.7 - - - - W 7 9 4 5 - - -
04/06:00am 11.8 - - - - W 6 9 3 5 - - -
04/05:30am 13.4 - - - - WNW 6 11 3 6 - - -
04/05:00am 13.9 - - - - NW 7 13 4 7 - - -
04/04:30am 14.2 - - - - WNW 13 17 7 9 - - -
04/04:00am 14.0 - - - - NW 13 20 7 11 - - -
04/03:30am 14.3 - - - - NW 15 20 8 11 - - -
04/03:00am 14.1 - - - - NW 17 26 9 14 - - -
04/02:30am 14.5 - - - - NW 20 30 11 16 - - -
04/02:00am 14.8 - - - - NW 20 28 11 15 - - -
04/01:30am 15.2 - - - - NW 24 33 13 18 - - -
04/01:00am 15.5 - - - - NW 24 35 13 19 - - -
04/12:30am 15.4 - - - - NW 19 28 10 15 - - -
04/12:00am 15.3 - - - - NNW 17 22 9 12 - - -
 
Date/Time
EST
Temp
°C
App
Temp
°C
Dew
Point
°C
Rel
Hum
%
Delta-T
°C
Wind Press
QNH
hPa
Press
MSL
hPa
Rain since
9am
mm
Dir  Spd
km/h
Gust
km/h
Spd
kts
Gust
kts
03/11:30pm 15.6 - - - - NNW 17 22 9 12 - - -
03/11:00pm 16.3 - - - - NNW 15 24 8 13 - - -
03/10:30pm 17.1 - - - - NW 17 20 9 11 - - -
03/10:00pm 15.5 - - - - NNW 2 7 1 4 - - -
03/09:30pm 16.0 - - - - SW 6 7 3 4 - - -
03/09:00pm 16.4 - - - - W 13 15 7 8 - - -
03/08:30pm 17.6 - - - - W 13 17 7 9 - - -
03/08:00pm 18.2 - - - - NW 17 20 9 11 - - -
03/07:30pm 17.0 - - - - WNW 6 9 3 5 - - -
03/07:00pm 16.9 - - - - NNW 11 15 6 8 - - -
03/06:30pm 18.7 - - - - NNW 13 15 7 8 - - -
03/06:00pm 18.7 - - - - NNW 11 13 6 7 - - -
03/05:30pm 18.7 - - - - NNW 9 11 5 6 - - -
03/05:00pm 17.7 - - - - NNE 13 17 7 9 - - -
03/04:30pm 18.1 - - - - N 11 15 6 8 - - -
03/04:00pm 17.8 - - - - N 11 15 6 8 - - -
03/03:30pm 18.1 - - - - SSE 2 7 1 4 - - -
03/03:00pm 18.8 - - - - N 2 7 1 4 - - -
03/02:30pm 17.8 - - - - NNE 7 9 4 5 - - -
03/02:00pm 17.3 - - - - NE 11 13 6 7 - - -
03/01:30pm 16.0 - - - - ESE 6 7 3 4 - - -
03/01:00pm 16.3 - - - - CALM 0 0 0 0 - - -
03/12:30pm 15.6 - - - - S 4 6 2 3 - - -
03/12:00pm 15.1 - - - - S 7 9 4 5 - - -
03/11:30am 14.5 - - - - SSW 6 7 3 4 - - -
03/11:00am 13.6 - - - - SW 11 13 6 7 - - -
03/10:30am 13.0 - - - - SW 9 13 5 7 - - -
03/10:00am 12.4 - - - - WSW 11 15 6 8 - - -
03/09:30am 11.5 - - - - WSW 15 19 8 10 - - -
03/09:00am 11.3 - - - - WSW 15 20 8 11 - - -
03/08:30am 10.8 - - - - SW 13 15 7 8 - - -
03/08:00am 10.2 - - - - WSW 11 13 6 7 - - -
03/07:30am 9.8 - - - - WSW 11 17 6 9 - - -
03/07:00am 9.6 - - - - WSW 17 20 9 11 - - -
03/06:30am 10.2 - - - - WSW 13 19 7 10 - - -
03/06:00am 10.7 - - - - WSW 11 17 6 9 - - -
03/05:30am 11.0 - - - - SW 7 9 4 5 - - -
03/05:00am 11.1 - - - - SW 9 11 5 6 - - -
03/04:30am 11.5 - - - - SW 7 9 4 5 - - -
03/04:00am 11.3 - - - - SW 9 11 5 6 - - -
03/03:30am 11.8 - - - - SW 9 11 5 6 - - -
03/03:00am 11.9 - - - - WSW 7 7 4 4 - - -
03/02:30am 11.9 - - - - CALM 0 0 0 0 - - -
03/02:00am 12.3 - - - - CALM 0 6 0 3 - - -
03/01:30am 12.5 - - - - CALM 0 0 0 0 - - -
03/01:00am 13.0 - - - - NNW 6 7 3 4 - - -
03/12:30am 12.6 - - - - NW 7 7 4 4 - - -
03/12:00am 13.0 - - - - W 6 7 3 4 - - -
 
Date/Time
EST
Temp
°C
App
Temp
°C
Dew
Point
°C
Rel
Hum
%
Delta-T
°C
Wind Press
QNH
hPa
Press
MSL
hPa
Rain since
9am
mm
Dir  Spd
km/h
Gust
km/h
Spd
kts
Gust
kts
02/11:30pm 13.1 - - - - W 2 7 1 4 - - -
02/11:00pm 13.4 - - - - W 7 7 4 4 - - -
02/10:30pm 13.8 - - - - NNW 6 7 3 4 - - -
02/10:00pm 14.3 - - - - NNW 9 9 5 5 - - -
02/09:30pm 13.9 - - - - N 11 11 6 6 - - -

Latest Capital City Observations: Canberra | Sydney | Melbourne | Brisbane | Adelaide | Perth | Hobart | Darwin

Other formats

Comma delimited format used in spreadsheet applications
http://www.bom.gov.au/fwo/IDN60901/IDN60901.95766.axf

JavaScript Object Notation format (JSON) in row-major order
http://www.bom.gov.au/fwo/IDN60901/IDN60901.95766.json

Data quality

Most of these data are generated automatically and are frequently updated. Quality checks on data are not normally performed. It is possible for incorrect values to appear. Refer to information at About Latest Weather Observations and please check the disclaimer before using these data.